Time;durP1;ratioP1;P1;durP2;ratioP2;P2;SDS_P1;SDS_P2;PMS_P1;PMS_P2;Temp;Humidity;BMP_temperature;BMP_pressure;BME280_temperature;BME280_humidity;BME280_pressure;Samples;Min_cycle;Max_cycle;Signal;HPM_P1;HPM_P2
2023/05/19 00:01:09;;;;;;;13.93;10.13;;;;;;;11.31;59.29;102516.81;5072476;28;20483;-65
2023/05/19 00:03:39;;;;;;;14.38;11.07;;;;;;;11.31;59.32;102496.38;5072156;28;20021;-65
2023/05/19 00:06:07;;;;;;;16.63;11.65;;;;;;;11.27;59.27;102509.88;5104770;28;20024;-65
2023/05/19 00:08:33;;;;;;;15.48;11.95;;;;;;;11.39;59.26;102500.53;5071732;28;20033;-65
2023/05/19 00:10:59;;;;;;;15.07;10.60;;;;;;;11.13;59.50;102494.44;5087757;28;20055;-65
2023/05/19 00:13:26;;;;;;;15.95;11.02;;;;;;;11.23;59.59;102492.28;5070908;28;20032;-65
2023/05/19 00:15:51;;;;;;;14.25;10.35;;;;;;;11.05;60.04;102492.06;5071947;28;20036;-66
2023/05/19 00:18:17;;;;;;;13.48;11.32;;;;;;;11.28;59.70;102498.28;5071890;28;20039;-65
2023/05/19 00:20:44;;;;;;;16.65;11.40;;;;;;;11.21;59.78;102496.81;5104723;28;20025;-66
2023/05/19 00:23:10;;;;;;;11.70;10.35;;;;;;;10.89;60.68;102491.78;5104119;28;20089;-65
2023/05/19 00:25:35;;;;;;;13.55;10.38;;;;;;;11.06;60.15;102491.16;5104528;28;20483;-66
2023/05/19 00:28:01;;;;;;;14.90;10.73;;;;;;;11.04;60.34;102485.00;5071643;28;20090;-65
2023/05/19 00:30:28;;;;;;;17.63;10.98;;;;;;;11.04;60.69;102479.69;5071958;28;20074;-65
2023/05/19 00:32:53;;;;;;;12.70;10.95;;;;;;;11.06;60.35;102477.84;5071858;28;20020;-65
2023/05/19 00:35:19;;;;;;;16.45;10.88;;;;;;;10.89;60.79;102480.28;5087513;28;20400;-65
2023/05/19 00:37:47;;;;;;;11.82;10.52;;;;;;;10.99;60.48;102478.13;5071475;28;20024;-65
2023/05/19 00:40:13;;;;;;;12.55;10.57;;;;;;;10.90;61.50;102477.53;5104081;28;20048;-66
2023/05/19 00:42:39;;;;;;;14.43;10.10;;;;;;;11.07;60.51;102476.03;5071979;28;20426;-65
2023/05/19 00:45:05;;;;;;;13.98;10.18;;;;;;;11.04;60.27;102474.34;5104233;28;20044;-66
2023/05/19 00:47:32;;;;;;;15.70;9.85;;;;;;;11.10;60.21;102473.25;5071613;28;20086;-65
2023/05/19 00:49:58;;;;;;;12.45;10.57;;;;;;;11.13;60.08;102459.81;5070629;28;20034;-66
2023/05/19 00:52:24;;;;;;;13.05;10.30;;;;;;;11.03;60.74;102472.63;5071228;28;20037;-66
2023/05/19 00:54:50;;;;;;;18.40;10.75;;;;;;;10.97;60.94;102469.31;5070381;28;20029;-65
2023/05/19 00:57:19;;;;;;;16.05;10.25;;;;;;;10.99;61.12;102468.31;5104169;28;20056;-65
2023/05/19 00:59:45;;;;;;;14.70;9.70;;;;;;;11.00;61.14;102479.84;5071731;28;20077;-65
2023/05/19 01:02:11;;;;;;;13.90;9.95;;;;;;;11.01;61.42;102478.94;5070419;28;20024;-65
2023/05/19 01:04:38;;;;;;;15.13;10.07;;;;;;;11.05;61.38;102476.06;5071780;28;20029;-66
2023/05/19 01:07:04;;;;;;;12.88;9.77;;;;;;;11.02;62.49;102473.53;5071022;28;20020;-66
2023/05/19 01:09:32;;;;;;;12.80;10.18;;;;;;;10.82;63.03;102471.63;5071619;28;20056;-65
2023/05/19 01:12:01;;;;;;;14.57;9.77;;;;;;;10.96;62.84;102478.25;5071361;28;20031;-66
2023/05/19 01:14:27;;;;;;;14.75;9.75;;;;;;;10.80;63.58;102473.50;5071634;28;20111;-66
2023/05/19 01:17:21;;;;;;;12.90;9.98;;;;;;;10.88;63.78;102470.53;5071416;28;20028;-66
2023/05/19 01:20:07;;;;;;;12.95;9.88;;;;;;;10.93;64.39;102475.69;5071559;28;20034;-66
2023/05/19 01:22:43;;;;;;;15.32;9.93;;;;;;;10.88;64.31;102474.09;5069616;28;20028;-66
2023/05/19 01:25:46;;;;;;;16.08;9.60;;;;;;;11.01;64.41;102476.28;5073492;28;20024;-66
2023/05/19 01:28:30;;;;;;;16.55;9.75;;;;;;;10.89;65.20;102475.81;5073938;28;20029;-66
2023/05/19 01:30:59;;;;;;;14.15;9.35;;;;;;;10.76;65.62;102461.22;5073888;28;20051;-66
2023/05/19 01:33:29;;;;;;;15.38;9.43;;;;;;;10.70;66.11;102466.78;5075163;28;20024;-65
2023/05/19 01:35:55;;;;;;;;;;;;;;;10.90;65.17;102472.22;5074201;28;20107;-66
2023/05/19 01:38:21;;;;;;;12.07;9.13;;;;;;;10.55;67.40;102464.69;5107045;28;19927;-66
2023/05/19 01:40:48;;;;;;;13.18;9.25;;;;;;;10.69;66.51;102470.38;5074990;28;20055;-65
2023/05/19 01:43:20;;;;;;;13.55;10.45;;;;;;;10.84;66.26;102464.47;5074969;28;20017;-66
2023/05/19 01:45:47;;;;;;;17.77;9.77;;;;;;;10.68;67.00;102460.66;5074854;28;20032;-65
2023/05/19 01:48:14;;;;;;;17.75;9.82;;;;;;;10.58;67.11;102465.44;5073316;28;20023;-66
2023/05/19 01:50:41;;;;;;;16.00;9.85;;;;;;;10.62;67.44;102460.91;5073893;28;20021;-66
2023/05/19 01:53:06;;;;;;;12.13;8.73;;;;;;;10.43;67.94;102442.06;5074072;28;20029;-65
2023/05/19 01:55:33;;;;;;;16.08;9.95;;;;;;;10.24;68.94;102442.72;5073715;28;20025;-66
2023/05/19 01:58:10;;;;;;;12.45;8.60;;;;;;;10.37;69.01;102448.47;5074504;28;20013;-65
2023/05/19 02:00:55;;;;;;;14.15;8.88;;;;;;;10.25;68.79;102443.59;5073584;28;20372;-66
2023/05/19 02:03:39;;;;;;;15.45;9.80;;;;;;;10.29;69.08;102450.53;5074564;28;20391;-66
2023/05/19 02:06:16;;;;;;;13.82;9.77;;;;;;;10.33;68.63;102446.00;5074506;28;20044;-66
2023/05/19 02:08:50;;;;;;;14.73;9.40;;;;;;;10.38;68.75;102446.69;5073933;28;20050;-66
2023/05/19 02:11:59;;;;;;;16.05;9.40;;;;;;;10.41;68.51;102447.47;5074604;28;20120;-65
2023/05/19 02:14:31;;;;;;;14.27;9.60;;;;;;;10.17;69.29;102446.50;5032307;28;20029;-65
2023/05/19 02:16:59;;;;;;;13.65;9.05;;;;;;;10.19;69.18;102447.31;5062798;28;20044;-66
2023/05/19 02:19:26;;;;;;;12.55;9.15;;;;;;;10.32;68.33;102445.13;5074340;28;20025;-66
2023/05/19 02:21:51;;;;;;;12.25;9.07;;;;;;;10.00;69.79;102443.59;5072281;28;20625;-65
2023/05/19 02:24:18;;;;;;;13.85;9.27;;;;;;;10.05;69.20;102449.59;5074135;28;20036;-66
2023/05/19 02:26:44;;;;;;;13.15;9.65;;;;;;;10.07;70.24;102442.44;5074087;28;20036;-66
2023/05/19 02:29:10;;;;;;;13.63;9.55;;;;;;;9.86;70.52;102441.41;5072968;28;20472;-65
2023/05/19 02:31:35;;;;;;;12.82;10.02;;;;;;;9.77;70.83;102447.91;5072659;28;20024;-66
2023/05/19 02:34:01;;;;;;;17.25;10.38;;;;;;;9.95;70.48;102446.41;5106463;28;20364;-65
2023/05/19 02:36:27;;;;;;;23.13;9.82;;;;;;;9.92;70.58;102440.34;5071924;28;20024;-66
2023/05/19 02:38:52;;;;;;;13.95;9.85;;;;;;;9.78;70.93;102428.38;5072846;28;20016;-66
2023/05/19 02:41:17;;;;;;;11.68;10.00;;;;;;;9.74;71.07;102433.88;5072616;28;20063;-65
2023/05/19 02:43:43;;;;;;;14.35;9.20;;;;;;;9.95;70.65;102437.56;5073958;28;20098;-66
2023/05/19 02:46:11;;;;;;;15.00;9.73;;;;;;;9.95;70.77;102433.13;5073683;28;20028;-65
2023/05/19 02:48:38;;;;;;;14.13;10.15;;;;;;;9.76;71.23;102432.91;5073698;28;20032;-65
2023/05/19 02:51:03;;;;;;;13.27;9.88;;;;;;;9.72;71.21;102436.56;5073493;28;20103;-65
2023/05/19 02:53:31;;;;;;;16.98;10.35;;;;;;;9.64;71.63;102430.63;5072009;28;20047;-65
2023/05/19 02:55:56;;;;;;;12.05;9.50;;;;;;;9.84;70.87;102427.28;5073674;28;20035;-65
2023/05/19 02:58:24;;;;;;;17.38;9.55;;;;;;;9.78;70.84;102420.41;5073646;28;20020;-65
2023/05/19 03:00:50;;;;;;;17.10;10.25;;;;;;;9.73;71.62;102429.44;5072233;28;20025;-65
2023/05/19 03:03:15;;;;;;;15.68;9.80;;;;;;;9.71;71.24;102413.56;5073475;28;20422;-66
2023/05/19 03:05:41;;;;;;;18.83;9.85;;;;;;;9.72;71.79;102423.28;5072260;28;20027;-65
2023/05/19 03:08:08;;;;;;;14.63;9.63;;;;;;;9.64;71.83;102424.44;5071537;28;20090;-65
2023/05/19 03:10:33;;;;;;;10.90;9.80;;;;;;;9.74;71.78;102425.91;5073559;28;20025;-65
2023/05/19 03:12:58;;;;;;;14.00;10.10;;;;;;;9.58;72.31;102422.88;5071857;28;20408;-65
2023/05/19 03:15:24;;;;;;;16.48;10.13;;;;;;;9.43;72.62;102428.69;5073235;28;20029;-66
2023/05/19 03:17:49;;;;;;;15.35;10.13;;;;;;;9.48;72.75;102424.97;5073165;28;20056;-65
2023/05/19 03:20:15;;;;;;;14.27;10.52;;;;;;;9.46;72.67;102431.25;5072935;28;20028;-65
2023/05/19 03:22:40;;;;;;;14.80;10.88;;;;;;;9.41;73.57;102439.38;5105410;28;20071;-65
2023/05/19 03:25:06;;;;;;;13.88;9.90;;;;;;;9.30;73.90;102430.88;5105523;28;20115;-65
2023/05/19 03:27:34;;;;;;;14.73;10.55;;;;;;;9.35;73.19;102439.56;5072763;28;20052;-65
2023/05/19 03:30:00;;;;;;;14.25;9.65;;;;;;;9.46;73.06;102440.06;5072821;28;20032;-65
2023/05/19 03:32:27;;;;;;;13.10;10.30;;;;;;;9.38;73.54;102443.91;5071594;28;20031;-65
2023/05/19 03:34:53;;;;;;;16.70;11.07;;;;;;;9.26;73.89;102439.84;5072517;28;20077;-66
2023/05/19 03:37:18;;;;;;;16.83;10.80;;;;;;;9.60;73.09;102434.31;5104763;28;20032;-65
2023/05/19 03:39:44;;;;;;;11.02;8.57;;;;;;;9.49;73.11;102445.28;5105285;28;20035;-66
2023/05/19 03:42:09;;;;;;;15.07;10.18;;;;;;;9.28;73.77;102443.34;5072845;28;20055;-65
2023/05/19 03:44:34;;;;;;;13.48;10.10;;;;;;;9.35;73.66;102450.16;5088296;28;20058;-65
2023/05/19 03:47:00;;;;;;;19.65;10.82;;;;;;;9.30;73.68;102450.34;5072090;28;20038;-66
2023/05/19 03:49:25;;;;;;;12.73;8.82;;;;;;;9.50;73.55;102454.13;5072405;28;20028;-65
2023/05/19 03:51:53;;;;;;;14.48;10.88;;;;;;;9.32;73.63;102442.31;5070773;28;20113;-66
2023/05/19 03:54:19;;;;;;;17.50;11.02;;;;;;;9.28;73.82;102453.97;5072531;28;20403;-65
2023/05/19 03:56:45;;;;;;;16.42;9.20;;;;;;;9.48;73.26;102451.53;5072406;28;20107;-66
2023/05/19 03:59:12;;;;;;;18.42;10.35;;;;;;;9.36;73.66;102446.63;5072426;28;20095;-66
2023/05/19 04:01:38;;;;;;;14.98;11.05;;;;;;;9.14;74.45;102440.25;5072534;28;20462;-66
2023/05/19 04:04:03;;;;;;;14.60;11.63;;;;;;;9.13;74.81;102439.38;5072012;28;20024;-66
2023/05/19 04:06:29;;;;;;;14.52;11.10;;;;;;;9.14;75.09;102443.75;5087308;28;20025;-66
2023/05/19 04:08:55;;;;;;;15.02;8.57;;;;;;;9.28;74.45;102446.84;5072230;28;20118;-66
2023/05/19 04:11:20;;;;;;;18.52;10.57;;;;;;;9.33;74.41;102438.75;5072137;28;20111;-66
2023/05/19 04:13:46;;;;;;;19.40;10.57;;;;;;;9.28;74.94;102449.50;5072315;28;20042;-65
2023/05/19 04:16:11;;;;;;;14.57;11.63;;;;;;;9.39;74.88;102448.31;5072167;28;20043;-66
2023/05/19 04:18:37;;;;;;;18.55;12.02;;;;;;;9.24;75.76;102447.03;5104391;28;20024;-65
2023/05/19 04:21:02;;;;;;;20.42;12.93;;;;;;;9.37;75.41;102439.53;5072053;28;20024;-66
2023/05/19 04:23:28;;;;;;;18.33;11.18;;;;;;;9.45;75.09;102440.16;5071564;28;20471;-65
2023/05/19 04:25:53;;;;;;;19.42;12.20;;;;;;;9.28;75.63;102441.53;5071985;28;20115;-65
2023/05/19 04:28:20;;;;;;;17.88;12.27;;;;;;;9.34;75.39;102440.47;5071591;28;20082;-66
2023/05/19 04:30:45;;;;;;;15.63;11.50;;;;;;;9.33;75.78;102447.59;5072084;28;20071;-65
2023/05/19 04:33:13;;;;;;;14.05;12.18;;;;;;;9.26;75.84;102445.16;5104321;28;20068;-66
2023/05/19 04:35:39;;;;;;;14.35;9.40;;;;;;;9.46;75.56;102448.03;5104675;28;20035;-66
2023/05/19 04:38:04;;;;;;;17.98;12.35;;;;;;;9.38;75.50;102433.28;5071276;28;20024;-66
2023/05/19 04:40:30;;;;;;;18.42;12.30;;;;;;;9.24;76.18;102439.91;5104308;28;20048;-66
2023/05/19 04:42:56;;;;;;;18.45;10.20;;;;;;;9.55;75.68;102444.22;5087136;28;20046;-65
2023/05/19 04:45:24;;;;;;;23.33;12.65;;;;;;;9.29;75.84;102438.00;5071785;28;20112;-66
2023/05/19 04:47:51;;;;;;;15.10;9.88;;;;;;;9.43;76.34;102452.59;5071222;28;20100;-66
2023/05/19 04:50:17;;;;;;;17.90;13.60;;;;;;;9.25;76.42;102446.97;5071765;28;20028;-66
2023/05/19 04:52:44;;;;;;;20.50;12.88;;;;;;;9.19;77.23;102449.81;5071414;28;20074;-65
2023/05/19 04:55:12;;;;;;;17.38;10.55;;;;;;;9.31;76.89;102456.50;5071713;28;20016;-66
2023/05/19 04:57:37;;;;;;;17.15;13.10;;;;;;;9.31;77.29;102451.19;5104068;28;20025;-66
2023/05/19 05:00:06;;;;;;;16.13;12.48;;;;;;;9.26;77.44;102455.78;5073717;28;20020;-65
2023/05/19 05:02:32;;;;;;;18.25;11.18;;;;;;;9.51;76.79;102454.09;5075731;28;20181;-66
2023/05/19 05:04:58;;;;;;;15.23;12.65;;;;;;;9.37;76.75;102443.03;5108546;28;20368;-65
2023/05/19 05:07:23;;;;;;;17.63;9.70;;;;;;;9.65;76.11;102439.50;5075092;28;20052;-66
2023/05/19 05:09:49;;;;;;;18.10;12.02;;;;;;;9.47;76.65;102440.94;5075649;28;20020;-65
2023/05/19 05:12:16;;;;;;;13.52;11.13;;;;;;;9.70;76.69;102451.66;5108035;28;20028;-66
2023/05/19 05:14:41;;;;;;;21.20;13.25;;;;;;;9.66;76.93;102452.72;5075950;28;20021;-65
2023/05/19 05:17:08;;;;;;;21.27;13.43;;;;;;;9.71;76.33;102440.16;5075160;28;20127;-65
2023/05/19 05:19:34;;;;;;;18.65;13.55;;;;;;;9.88;75.44;102450.22;5075703;28;20575;-65
2023/05/19 05:21:59;;;;;;;17.13;13.35;;;;;;;9.92;75.55;102445.66;5075013;28;20074;-66
2023/05/19 05:24:26;;;;;;;16.50;10.75;;;;;;;10.04;75.22;102454.97;5091079;28;20119;-65
2023/05/19 05:26:51;;;;;;;20.10;14.45;;;;;;;9.87;75.58;102451.09;5075124;28;20029;-66
2023/05/19 05:29:17;;;;;;;14.80;13.13;;;;;;;10.08;75.76;102459.25;5107755;28;20024;-66
2023/05/19 05:31:42;;;;;;;18.10;13.32;;;;;;;10.14;75.50;102457.25;5075258;28;20020;-67
2023/05/19 05:34:08;;;;;;;16.88;13.13;;;;;;;10.08;74.77;102467.25;5075423;28;20047;-66
2023/05/19 05:36:35;;;;;;;15.45;12.40;;;;;;;10.21;74.70;102461.44;5074627;28;20032;-67
2023/05/19 05:39:01;;;;;;;17.00;12.45;;;;;;;10.22;74.37;102454.31;5107186;28;20537;-67
2023/05/19 05:41:33;;;;;;;21.67;12.93;;;;;;;10.35;74.58;102468.97;5107226;28;20052;-67
2023/05/19 05:44:00;;;;;;;16.00;13.32;;;;;;;10.38;74.13;102460.88;5074835;28;20027;-67
2023/05/19 05:46:27;;;;;;;15.65;12.93;;;;;;;10.33;74.62;102460.16;5074261;28;20463;-67
2023/05/19 05:48:54;;;;;;;14.88;12.35;;;;;;;10.51;74.20;102452.44;5074537;28;20017;-66
2023/05/19 05:51:25;;;;;;;16.95;12.93;;;;;;;10.54;74.04;102453.19;5074484;28;20082;-66
2023/05/19 05:53:52;;;;;;;17.20;13.02;;;;;;;10.61;73.96;102465.31;5107298;28;20025;-67
2023/05/19 05:56:18;;;;;;;17.05;13.15;;;;;;;10.62;73.65;102460.91;5074443;28;20028;-66
2023/05/19 05:58:44;;;;;;;17.30;11.73;;;;;;;10.80;72.77;102465.53;5107177;28;20021;-66
2023/05/19 06:01:10;;;;;;;16.48;12.40;;;;;;;10.78;73.10;102455.84;5073206;28;20028;-66
2023/05/19 06:03:43;;;;;;;15.93;12.20;;;;;;;10.80;72.63;102460.19;5107442;28;20107;-66
2023/05/19 06:06:11;;;;;;;18.35;12.10;;;;;;;10.93;72.42;102465.91;5107109;28;20081;-66
2023/05/19 06:08:37;;;;;;;19.65;12.43;;;;;;;11.03;72.94;102472.63;5073975;28;20809;-66
2023/05/19 06:11:09;;;;;;;18.80;12.30;;;;;;;11.10;71.69;102476.78;5074342;28;20039;-66
2023/05/19 06:13:35;;;;;;;17.05;11.38;;;;;;;11.21;71.61;102473.69;5106875;28;20028;-66
2023/05/19 06:16:01;;;;;;;16.83;11.68;;;;;;;11.17;71.70;102465.88;5074264;28;20032;-66
2023/05/19 06:18:26;;;;;;;18.70;11.80;;;;;;;11.28;71.46;102474.31;5106857;28;20020;-66
2023/05/19 06:20:52;;;;;;;14.05;11.23;;;;;;;11.32;71.09;102474.16;5106912;28;20017;-66
2023/05/19 06:23:17;;;;;;;15.00;12.52;;;;;;;11.33;71.44;102477.69;5073850;28;20031;-66
2023/05/19 06:25:43;;;;;;;14.23;12.25;;;;;;;11.21;71.95;102464.84;5074334;28;20388;-67
2023/05/19 06:28:08;;;;;;;16.95;12.02;;;;;;;11.36;70.88;102481.06;5074169;28;20020;-67
2023/05/19 06:30:35;;;;;;;19.58;12.23;;;;;;;11.35;70.87;102476.69;5106506;28;20490;-66
2023/05/19 06:33:01;;;;;;;18.27;12.02;;;;;;;11.35;71.41;102478.47;5074081;28;20020;-67
2023/05/19 06:35:27;;;;;;;13.85;11.65;;;;;;;11.23;70.86;102471.81;5073968;28;20020;-66
2023/05/19 06:37:55;;;;;;;20.27;12.50;;;;;;;11.34;71.16;102472.25;5106054;28;20070;-67
2023/05/19 06:40:21;;;;;;;18.35;11.68;;;;;;;11.48;70.78;102471.72;5106465;28;20048;-66
2023/05/19 06:42:46;;;;;;;15.32;11.65;;;;;;;11.72;70.60;102483.16;5106270;28;20471;-67
2023/05/19 06:45:12;;;;;;;16.20;11.98;;;;;;;11.89;70.36;102479.81;5074149;28;20041;-67
2023/05/19 06:47:40;;;;;;;15.75;11.52;;;;;;;11.95;69.28;102462.72;5073775;28;20446;-66
2023/05/19 06:50:08;;;;;;;17.10;11.68;;;;;;;12.07;68.67;102464.84;5073656;28;20025;-67
2023/05/19 06:52:34;;;;;;;18.27;11.52;;;;;;;12.16;67.70;102472.44;5073308;28;20104;-66
2023/05/19 06:54:59;;;;;;;14.75;11.60;;;;;;;12.26;68.24;102472.88;5106334;28;20107;-67
2023/05/19 06:57:24;;;;;;;16.48;11.63;;;;;;;12.31;68.00;102464.69;5105871;28;20028;-66
2023/05/19 06:59:50;;;;;;;17.98;11.70;;;;;;;12.40;67.94;102464.28;5073581;28;20024;-67
2023/05/19 07:02:15;;;;;;;21.38;12.27;;;;;;;12.47;67.27;102460.38;5073411;28;20055;-66
2023/05/19 07:04:41;;;;;;;17.75;11.77;;;;;;;12.60;67.29;102458.06;5073497;28;20048;-66
2023/05/19 07:07:09;;;;;;;14.80;12.60;;;;;;;12.71;67.36;102466.44;5072989;28;20096;-66
2023/05/19 07:09:35;;;;;;;17.05;12.07;;;;;;;12.81;66.01;102445.50;5101372;27;20025;-67
2023/05/19 07:12:00;;;;;;;15.75;11.60;;;;;;;12.95;65.34;102469.75;5072274;28;20033;-67
2023/05/19 07:14:26;;;;;;;17.20;11.38;;;;;;;13.10;65.34;102468.16;5105027;27;20048;-66
2023/05/19 07:16:51;;;;;;;14.85;11.93;;;;;;;13.21;65.34;102470.31;5081347;28;20033;-67
2023/05/19 07:19:20;;;;;;;16.45;11.80;;;;;;;13.42;65.47;102468.47;5071330;28;20016;-66
2023/05/19 07:21:46;;;;;;;17.15;10.48;;;;;;;13.45;64.53;102471.84;5104305;27;20032;-66
2023/05/19 07:24:12;;;;;;;17.48;11.10;;;;;;;13.59;63.73;102471.16;5072370;28;20123;-66
2023/05/19 07:26:38;;;;;;;16.98;11.05;;;;;;;13.70;63.10;102470.63;5104878;27;20640;-66
2023/05/19 07:29:03;;;;;;;12.75;9.35;;;;;;;13.81;62.53;102462.91;5072265;28;20604;-66
2023/05/19 07:31:29;;;;;;;15.25;10.13;;;;;;;13.89;61.14;102470.56;5071010;28;20063;-67
2023/05/19 07:33:54;;;;;;;13.40;9.95;;;;;;;14.01;61.15;102472.63;5072067;28;20029;-66
2023/05/19 07:36:20;;;;;;;14.65;9.82;;;;;;;14.18;61.10;102471.75;5071958;28;20024;-66
2023/05/19 07:38:46;;;;;;;14.27;9.90;;;;;;;14.22;60.97;102466.13;5072129;28;20063;-66
2023/05/19 07:41:11;;;;;;;15.30;10.35;;;;;;;14.30;60.02;102468.41;5070533;28;20156;-66
2023/05/19 07:43:37;;;;;;;14.20;10.15;;;;;;;14.39;59.83;102467.94;5071986;28;20032;-66
2023/05/19 07:46:02;;;;;;;15.20;9.70;;;;;;;14.59;60.57;102466.91;5071946;28;20028;-66
2023/05/19 07:48:28;;;;;;;15.10;11.30;;;;;;;14.73;59.16;102469.66;5071579;28;20039;-66
2023/05/19 07:50:54;;;;;;;11.65;10.10;;;;;;;14.88;59.31;102456.38;5071958;28;20017;-66
2023/05/19 07:53:22;;;;;;;13.98;9.90;;;;;;;14.95;59.49;102469.38;5104015;28;20108;-66
2023/05/19 07:55:50;;;;;;;14.45;9.68;;;;;;;15.02;58.46;102463.66;5071667;28;20031;-66
2023/05/19 07:58:16;;;;;;;14.52;9.15;;;;;;;15.12;57.00;102462.22;5071682;28;20056;-66
2023/05/19 08:00:42;;;;;;;14.48;8.45;;;;;;;15.17;57.08;102471.69;5070694;28;20460;-66
2023/05/19 08:03:08;;;;;;;16.27;8.93;;;;;;;15.21;56.56;102467.03;5070153;28;20032;-67
2023/05/19 08:05:38;;;;;;;12.73;8.52;;;;;;;15.14;56.20;102462.97;5071677;28;20024;-66
2023/05/19 08:08:03;;;;;;;11.38;9.20;;;;;;;15.22;55.96;102466.94;5070611;28;20426;-66
2023/05/19 08:10:29;;;;;;;14.32;8.73;;;;;;;15.47;56.68;102457.53;5069849;28;20073;-66
2023/05/19 08:12:54;;;;;;;12.95;9.05;;;;;;;15.72;56.90;102456.97;5066279;28;20115;-66
2023/05/19 08:15:20;;;;;;;10.13;8.25;;;;;;;15.69;54.71;102457.16;5070166;28;20078;-66
2023/05/19 08:17:46;;;;;;;12.85;9.13;;;;;;;15.69;53.73;102451.78;5071082;28;20044;-66
2023/05/19 08:20:12;;;;;;;14.38;8.80;;;;;;;15.85;53.83;102447.25;5054253;28;20923;-66
2023/05/19 08:22:37;;;;;;;14.65;8.18;;;;;;;16.04;53.50;102443.44;5102937;28;20549;-66
2023/05/19 08:25:04;;;;;;;11.52;8.15;;;;;;;16.24;53.07;102440.41;5071367;28;20081;-66
2023/05/19 08:27:30;;;;;;;15.05;9.10;;;;;;;16.33;52.61;102444.34;5069742;28;20057;-66
2023/05/19 08:29:56;;;;;;;14.02;9.05;;;;;;;16.31;51.48;102443.56;5071522;28;20480;-66
2023/05/19 08:32:21;;;;;;;13.75;7.78;;;;;;;16.55;50.96;102438.50;5069880;28;20033;-66
2023/05/19 08:34:47;;;;;;;11.20;7.63;;;;;;;16.61;50.90;102432.72;5069343;28;20024;-66
2023/05/19 08:37:12;;;;;;;16.13;7.97;;;;;;;16.81;52.09;102434.19;5071320;28;20031;-66
2023/05/19 08:39:38;;;;;;;13.20;7.85;;;;;;;16.92;50.54;102433.50;5070589;28;20035;-66
2023/05/19 08:42:04;;;;;;;11.95;6.97;;;;;;;17.09;49.44;102427.00;5071663;28;20037;-65
2023/05/19 08:44:30;;;;;;;12.50;7.18;;;;;;;17.09;48.75;102422.53;5070742;28;20020;-66
2023/05/19 08:46:59;;;;;;;12.40;7.50;;;;;;;17.26;49.20;102418.69;5071991;28;20031;-66
2023/05/19 08:49:30;;;;;;;;;;;;;;;17.59;50.33;102420.97;5072115;28;20530;-67
2023/05/19 08:52:20;;;;;;;12.60;7.78;;;;;;;17.72;47.24;102415.63;5103902;28;19948;-66
2023/05/19 08:54:59;;;;;;;14.82;7.28;;;;;;;17.86;49.08;102417.41;5066444;28;20045;-66
2023/05/19 08:57:27;;;;;;;13.35;6.45;;;;;;;17.96;45.48;102417.63;5070297;28;20040;-66
2023/05/19 08:59:53;;;;;;;14.10;6.20;;;;;;;17.99;44.64;102418.25;5071743;28;20024;-66
2023/05/19 09:02:20;;;;;;;11.05;5.97;;;;;;;18.15;44.41;102416.25;5070216;28;20487;-66
2023/05/19 09:04:46;;;;;;;13.13;6.15;;;;;;;18.33;45.91;102405.16;5071734;28;20035;-66
2023/05/19 09:07:15;;;;;;;13.18;6.60;;;;;;;18.42;45.31;102411.72;5069935;28;20066;-66
2023/05/19 09:09:42;;;;;;;10.95;4.95;;;;;;;18.56;42.21;102400.78;5070122;28;20028;-66
2023/05/19 09:12:10;;;;;;;10.10;5.05;;;;;;;18.76;42.04;102407.47;5071621;28;20031;-66
2023/05/19 09:14:36;;;;;;;7.00;4.07;;;;;;;18.69;39.89;102395.38;5070236;28;20032;-69
2023/05/19 09:17:02;;;;;;;9.32;4.55;;;;;;;18.68;40.79;102385.56;5071405;28;20292;-64
2023/05/19 09:19:30;;;;;;;9.35;4.35;;;;;;;18.42;41.77;102396.41;5070046;28;20035;-60
2023/05/19 09:22:03;;;;;;;12.50;5.25;;;;;;;18.03;42.18;102397.38;5069624;28;20500;-61
2023/05/19 09:24:29;;;;;;;12.05;4.57;;;;;;;17.95;43.04;102395.22;5070810;28;20036;-61
2023/05/19 09:26:56;;;;;;;11.02;4.32;;;;;;;17.93;40.99;102389.09;5071234;28;20078;-61
2023/05/19 09:29:22;;;;;;;10.50;4.68;;;;;;;17.89;41.36;102382.19;5069997;28;20525;-60
2023/05/19 09:31:59;;;;;;;8.43;4.38;;;;;;;17.86;41.55;102379.72;5069915;28;20033;-61
2023/05/19 09:34:27;;;;;;;8.35;4.30;;;;;;;17.91;41.79;102380.25;5070068;28;20115;-60
2023/05/19 09:36:53;;;;;;;10.80;4.50;;;;;;;18.02;42.91;102369.59;5070438;28;20107;-61
2023/05/19 09:39:20;;;;;;;7.50;4.00;;;;;;;17.92;42.35;102374.75;5071289;28;20051;-60
2023/05/19 09:41:45;;;;;;;9.45;4.30;;;;;;;17.95;41.70;102378.22;5071015;28;20467;-61
2023/05/19 09:44:20;;;;;;;8.77;4.13;;;;;;;18.32;39.00;102384.53;5071440;28;20052;-61
2023/05/19 09:46:52;;;;;;;9.15;4.03;;;;;;;18.41;38.64;102393.81;5073901;28;20090;-61
2023/05/19 09:49:23;;;;;;;11.40;4.93;;;;;;;18.15;38.69;102383.06;5074722;28;20390;-61
2023/05/19 09:51:55;;;;;;;6.82;4.00;;;;;;;18.19;39.60;102383.72;5074049;28;20036;-61
2023/05/19 09:54:25;;;;;;;7.82;4.22;;;;;;;18.00;39.24;102381.44;5075016;28;20024;-61
2023/05/19 09:56:57;;;;;;;11.77;3.63;;;;;;;18.21;39.53;102382.63;5073553;28;20028;-61
2023/05/19 09:59:24;;;;;;;11.25;3.65;;;;;;;18.44;39.50;102388.19;5074733;28;20027;-61
2023/05/19 10:01:52;;;;;;;9.88;4.13;;;;;;;18.58;38.94;102401.53;5073140;28;20021;-59
2023/05/19 10:04:21;;;;;;;8.98;4.05;;;;;;;18.56;39.60;102390.00;5074755;28;20055;-60
2023/05/19 10:06:52;;;;;;;11.40;4.10;;;;;;;18.68;40.02;102383.75;5073851;28;20099;-59
2023/05/19 10:09:22;;;;;;;8.73;4.32;;;;;;;18.59;38.70;102385.28;5073326;28;20044;-59
2023/05/19 10:11:50;;;;;;;10.73;4.10;;;;;;;19.02;38.63;102375.88;5074207;28;20506;-59
2023/05/19 10:14:17;;;;;;;10.32;3.85;;;;;;;19.35;38.83;102369.78;5072980;28;20032;-60
2023/05/19 10:16:44;;;;;;;9.68;3.75;;;;;;;19.42;36.22;102381.00;5074475;28;20028;-59
2023/05/19 10:19:11;;;;;;;10.07;3.92;;;;;;;19.59;35.65;102374.28;5073365;28;20024;-59
2023/05/19 10:21:37;;;;;;;8.77;3.60;;;;;;;19.69;34.50;102370.78;5073724;28;20020;-59
2023/05/19 10:24:02;;;;;;;13.52;3.65;;;;;;;19.80;35.32;102372.66;5056523;28;20029;-59
2023/05/19 10:26:31;;;;;;;8.82;3.90;;;;;;;20.01;35.50;102371.97;5074035;28;20069;-59
2023/05/19 10:28:57;;;;;;;6.68;3.70;;;;;;;20.22;35.13;102372.97;5073042;28;20025;-60
2023/05/19 10:31:23;;;;;;;7.45;3.35;;;;;;;20.29;36.00;102370.63;5072765;28;20032;-60
2023/05/19 10:34:04;;;;;;;9.93;3.33;;;;;;;20.67;38.24;102374.81;5073063;28;20459;-61
2023/05/19 10:36:44;;;;;;;9.10;3.30;;;;;;;20.47;35.88;102363.75;5073096;28;20020;-63
2023/05/19 10:39:16;;;;;;;6.32;3.25;;;;;;;20.28;37.81;102364.34;5072850;28;20028;-62
2023/05/19 10:42:11;;;;;;;9.80;3.60;;;;;;;20.56;38.15;102357.63;5073724;28;20052;-63
2023/05/19 10:44:54;;;;;;;8.80;3.58;;;;;;;20.69;37.31;102354.75;5072692;28;20021;-62
2023/05/19 10:47:26;;;;;;;9.00;3.53;;;;;;;20.72;36.91;102345.56;5072401;28;20111;-62
2023/05/19 10:49:52;;;;;;;9.77;3.45;;;;;;;20.87;34.99;102353.25;5073600;28;20086;-63
2023/05/19 10:52:28;;;;;;;9.13;3.58;;;;;;;20.64;34.61;102351.56;5071949;28;20107;-63
2023/05/19 10:54:54;;;;;;;9.02;3.45;;;;;;;20.39;35.64;102353.56;5073934;28;20024;-63
2023/05/19 10:57:30;;;;;;;9.32;3.90;;;;;;;20.64;35.59;102346.16;5072675;28;20522;-63
2023/05/19 10:59:56;;;;;;;7.32;3.30;;;;;;;20.71;35.98;102352.81;5072409;28;20030;-63
2023/05/19 11:02:54;;;;;;;7.70;3.47;;;;;;;20.82;36.18;102336.56;5072051;28;20394;-63
2023/05/19 11:05:29;;;;;;;13.82;4.13;;;;;;;20.76;35.62;102339.75;5073294;28;20531;-63
2023/05/19 11:08:10;;;;;;;9.23;3.35;;;;;;;20.60;34.95;102342.00;5072045;28;20108;-63
2023/05/19 11:10:35;;;;;;;11.82;3.40;;;;;;;20.95;34.43;102336.38;5073282;28;20066;-63
2023/05/19 11:13:03;;;;;;;11.88;3.72;;;;;;;21.28;34.68;102334.53;5073201;28;20025;-63
2023/05/19 11:15:34;;;;;;;7.27;3.30;;;;;;;21.37;34.20;102338.34;5073560;28;20028;-63
2023/05/19 11:18:00;;;;;;;8.23;3.30;;;;;;;21.38;34.19;102342.75;5073207;28;20555;-63
2023/05/19 11:20:28;;;;;;;7.28;3.15;;;;;;;21.57;34.00;102339.34;5071391;28;20055;-63